Terminal Aerodrome Forecast
Issued by NWS Twin Cities, MN

Home | Current Version | Previous Version | Graphics & Text | Print | Product List | Glossary On
Versions: 1 2 3 4 5 6 7 8 9 10 11 12 13 14 15 16 17 18 19 20 21 22 23 24 25 26 27 28 29
973
FTUS43 KMPX 141452 AAA
TAFMSP
TAF AMD
KMSP 141452Z 1415/1518 19003KT P6SM SKC
     FM141700 26004KT P6SM SCT250
     FM150000 00000KT P6SM SKC=

USA.gov is the U.S. government's official web portal to all federal, state and local government web resources and services.